Strona główna
METAR-TAF:

METAR-TAF

Lotnisko :

Lydd, Anglia

Szerokość geograficzna: 50-57N, Długość geograficzna: 000-56E, wysokość: 3 m

Aktualna obserwacja pogody

Raport powstał 15 minut temu, godzina 07:20 UTC
Wiatr 9 kt od zachód
Temperatura 2°C
Wilgotność 87%
Ciśnienie 1001 hPa
Widzialność 10 km lub więcej

METAR: EGMD 260720Z AUTO 28009KT 9999 NCD 02/M00 Q1001

czas: 07:35 (07:35 UTC)

Prognoza

Raport powstał 2 godziny i 30 minut temu, godzina 05:05 UTC
Prognoza ważna od 26 godzina 06 UTC do 26 godzina 15 UTC
Wiatr 15 kt od zachód
Widzialność 10 km lub więcej
Mało chmury na wysokości 2500 ft
Przejściowo
od 26 godzina 06 UTC do 26 godzina 15 UTC
Wiatr 18 kt od zachodnio-północny zachód w porywach dochodzący do 28 kt
Prawdopodobieństwo 30% :
Przejściowo
od 26 godzina 11 UTC do 26 godzina 15 UTC
Widzialność: 7000 m
Przerywane chmury na wysokości 1400 ft, Cumulonimbus.
przelotny opad deszczu

TAF: EGMD 260505Z 2606/2615 27015KT 9999 FEW025 TEMPO 2606/2615 30018G28KT PROB30 TEMPO 2611/2615 7000 SHRA BKN014CB

Obserwacja i prognoza pogody dla ponad 4000 lotnisk (raport METAR i TAF).

Dostępne stacje oznaczono żółtymi i czerwonymi punktami na mapie.

Najedź kursorem aby zobaczyć nazwę stacji.

Kliknij aby zobaczyć obserwacje i prognozy pogody.

Aby zmienić mapę: kliknij na zielony przycisk z czarnym krzyżykiem, aby powiększyć; na zielony przycisk z myślnikiem, aby pomniejszyć; na zielone strzałki, aby przejść do map sąsiednich.


METAR-TAF: